sensor_id;sensor_type;location;lat;lon;timestamp;P1;durP1;ratioP1;P2;durP2;ratioP2
10729;SDS011;5416;59.258;18.128;2024-01-27T00:00:50;2.67;;;2.58;;
10729;SDS011;5416;59.258;18.128;2024-01-27T00:03:17;3.20;;;3.10;;
10729;SDS011;5416;59.258;18.128;2024-01-27T00:05:44;2.65;;;2.55;;
10729;SDS011;5416;59.258;18.128;2024-01-27T00:08:11;2.55;;;2.45;;
10729;SDS011;5416;59.258;18.128;2024-01-27T00:10:38;2.72;;;2.63;;
10729;SDS011;5416;59.258;18.128;2024-01-27T00:13:07;2.97;;;2.88;;
10729;SDS011;5416;59.258;18.128;2024-01-27T00:15:34;2.47;;;2.38;;
10729;SDS011;5416;59.258;18.128;2024-01-27T00:18:01;2.70;;;2.60;;
10729;SDS011;5416;59.258;18.128;2024-01-27T00:20:28;2.67;;;2.58;;
10729;SDS011;5416;59.258;18.128;2024-01-27T00:22:55;2.80;;;2.70;;
10729;SDS011;5416;59.258;18.128;2024-01-27T00:25:22;3.10;;;3.00;;
10729;SDS011;5416;59.258;18.128;2024-01-27T00:27:49;2.38;;;2.28;;
10729;SDS011;5416;59.258;18.128;2024-01-27T00:30:18;2.30;;;2.20;;
10729;SDS011;5416;59.258;18.128;2024-01-27T00:32:45;2.78;;;2.67;;
10729;SDS011;5416;59.258;18.128;2024-01-27T00:35:12;3.00;;;2.90;;
10729;SDS011;5416;59.258;18.128;2024-01-27T00:37:40;2.60;;;2.50;;
10729;SDS011;5416;59.258;18.128;2024-01-27T00:40:08;2.60;;;2.50;;
10729;SDS011;5416;59.258;18.128;2024-01-27T00:42:35;3.00;;;2.90;;
10729;SDS011;5416;59.258;18.128;2024-01-27T00:45:03;3.13;;;3.03;;
10729;SDS011;5416;59.258;18.128;2024-01-27T00:47:32;2.80;;;2.70;;
10729;SDS011;5416;59.258;18.128;2024-01-27T00:49:59;3.05;;;2.95;;
10729;SDS011;5416;59.258;18.128;2024-01-27T00:52:26;2.90;;;2.80;;
10729;SDS011;5416;59.258;18.128;2024-01-27T00:54:53;2.90;;;2.80;;
10729;SDS011;5416;59.258;18.128;2024-01-27T00:57:20;2.90;;;2.80;;
10729;SDS011;5416;59.258;18.128;2024-01-27T00:59:47;2.70;;;2.60;;
10729;SDS011;5416;59.258;18.128;2024-01-27T01:02:15;2.90;;;2.80;;
10729;SDS011;5416;59.258;18.128;2024-01-27T01:04:43;3.20;;;3.10;;
10729;SDS011;5416;59.258;18.128;2024-01-27T01:07:10;3.25;;;3.15;;
10729;SDS011;5416;59.258;18.128;2024-01-27T01:09:38;2.42;;;2.33;;
10729;SDS011;5416;59.258;18.128;2024-01-27T01:12:05;2.73;;;2.63;;
10729;SDS011;5416;59.258;18.128;2024-01-27T01:14:32;3.30;;;3.20;;
10729;SDS011;5416;59.258;18.128;2024-01-27T01:16:59;3.08;;;2.97;;
10729;SDS011;5416;59.258;18.128;2024-01-27T01:19:26;2.70;;;2.60;;
10729;SDS011;5416;59.258;18.128;2024-01-27T01:21:55;2.60;;;2.50;;
10729;SDS011;5416;59.258;18.128;2024-01-27T01:24:22;2.80;;;2.70;;
10729;SDS011;5416;59.258;18.128;2024-01-27T01:26:49;3.38;;;3.28;;
10729;SDS011;5416;59.258;18.128;2024-01-27T01:29:16;2.40;;;2.30;;
10729;SDS011;5416;59.258;18.128;2024-01-27T01:31:43;2.80;;;2.70;;
10729;SDS011;5416;59.258;18.128;2024-01-27T01:34:10;3.15;;;3.05;;
10729;SDS011;5416;59.258;18.128;2024-01-27T01:36:37;3.28;;;3.17;;
10729;SDS011;5416;59.258;18.128;2024-01-27T01:39:06;2.53;;;2.42;;
10729;SDS011;5416;59.258;18.128;2024-01-27T01:41:33;2.75;;;2.65;;
10729;SDS011;5416;59.258;18.128;2024-01-27T01:44:00;2.88;;;2.78;;
10729;SDS011;5416;59.258;18.128;2024-01-27T01:46:28;2.90;;;2.80;;
10729;SDS011;5416;59.258;18.128;2024-01-27T01:48:55;2.55;;;2.45;;
10729;SDS011;5416;59.258;18.128;2024-01-27T01:51:22;2.65;;;2.55;;
10729;SDS011;5416;59.258;18.128;2024-01-27T01:53:49;3.10;;;3.00;;
10729;SDS011;5416;59.258;18.128;2024-01-27T01:56:19;3.47;;;3.37;;
10729;SDS011;5416;59.258;18.128;2024-01-27T01:58:46;3.40;;;3.30;;
10729;SDS011;5416;59.258;18.128;2024-01-27T02:01:13;2.67;;;2.58;;
10729;SDS011;5416;59.258;18.128;2024-01-27T02:03:50;2.78;;;2.67;;
10729;SDS011;5416;59.258;18.128;2024-01-27T02:06:17;2.80;;;2.70;;
10729;SDS011;5416;59.258;18.128;2024-01-27T02:08:44;3.17;;;3.07;;
10729;SDS011;5416;59.258;18.128;2024-01-27T02:11:12;2.70;;;2.60;;
10729;SDS011;5416;59.258;18.128;2024-01-27T02:13:40;2.75;;;2.65;;
10729;SDS011;5416;59.258;18.128;2024-01-27T02:16:07;3.08;;;2.97;;
10729;SDS011;5416;59.258;18.128;2024-01-27T02:18:35;2.70;;;2.60;;
10729;SDS011;5416;59.258;18.128;2024-01-27T02:21:02;2.53;;;2.42;;
10729;SDS011;5416;59.258;18.128;2024-01-27T02:23:29;2.70;;;2.60;;
10729;SDS011;5416;59.258;18.128;2024-01-27T02:25:57;2.80;;;2.70;;
10729;SDS011;5416;59.258;18.128;2024-01-27T02:28:24;3.30;;;3.20;;
10729;SDS011;5416;59.258;18.128;2024-01-27T02:30:52;2.80;;;2.70;;
10729;SDS011;5416;59.258;18.128;2024-01-27T02:33:19;2.73;;;2.63;;
10729;SDS011;5416;59.258;18.128;2024-01-27T02:35:46;3.00;;;2.90;;
10729;SDS011;5416;59.258;18.128;2024-01-27T02:38:14;2.90;;;2.80;;
10729;SDS011;5416;59.258;18.128;2024-01-27T02:40:41;3.00;;;2.90;;
10729;SDS011;5416;59.258;18.128;2024-01-27T02:43:10;2.50;;;2.40;;
10729;SDS011;5416;59.258;18.128;2024-01-27T02:45:37;2.60;;;2.50;;
10729;SDS011;5416;59.258;18.128;2024-01-27T02:48:04;2.95;;;2.85;;
10729;SDS011;5416;59.258;18.128;2024-01-27T02:50:31;3.20;;;3.10;;
10729;SDS011;5416;59.258;18.128;2024-01-27T02:52:58;2.33;;;2.22;;
10729;SDS011;5416;59.258;18.128;2024-01-27T02:55:25;2.45;;;2.35;;
10729;SDS011;5416;59.258;18.128;2024-01-27T02:57:53;2.95;;;2.85;;
10729;SDS011;5416;59.258;18.128;2024-01-27T03:00:21;3.17;;;3.08;;
10729;SDS011;5416;59.258;18.128;2024-01-27T03:02:48;2.35;;;2.25;;
10729;SDS011;5416;59.258;18.128;2024-01-27T03:05:15;2.97;;;2.87;;
10729;SDS011;5416;59.258;18.128;2024-01-27T03:07:42;3.20;;;3.10;;
10729;SDS011;5416;59.258;18.128;2024-01-27T03:10:10;2.97;;;2.88;;
10729;SDS011;5416;59.258;18.128;2024-01-27T03:12:37;2.67;;;2.58;;
10729;SDS011;5416;59.258;18.128;2024-01-27T03:15:04;2.90;;;2.80;;
10729;SDS011;5416;59.258;18.128;2024-01-27T03:17:33;2.80;;;2.70;;
10729;SDS011;5416;59.258;18.128;2024-01-27T03:20:00;3.08;;;2.97;;
10729;SDS011;5416;59.258;18.128;2024-01-27T03:22:27;2.80;;;2.70;;
10729;SDS011;5416;59.258;18.128;2024-01-27T03:24:54;2.97;;;2.88;;
10729;SDS011;5416;59.258;18.128;2024-01-27T03:27:22;2.70;;;2.60;;
10729;SDS011;5416;59.258;18.128;2024-01-27T03:29:49;2.60;;;2.50;;
10729;SDS011;5416;59.258;18.128;2024-01-27T03:32:16;2.60;;;2.50;;
10729;SDS011;5416;59.258;18.128;2024-01-27T03:34:44;2.83;;;2.72;;
10729;SDS011;5416;59.258;18.128;2024-01-27T03:37:11;2.78;;;2.67;;
10729;SDS011;5416;59.258;18.128;2024-01-27T03:39:40;2.95;;;2.85;;
10729;SDS011;5416;59.258;18.128;2024-01-27T03:42:08;2.65;;;2.55;;
10729;SDS011;5416;59.258;18.128;2024-01-27T03:44:35;2.60;;;2.50;;
10729;SDS011;5416;59.258;18.128;2024-01-27T03:47:03;2.95;;;2.85;;
10729;SDS011;5416;59.258;18.128;2024-01-27T03:49:30;2.90;;;2.80;;
10729;SDS011;5416;59.258;18.128;2024-01-27T03:51:58;2.70;;;2.60;;
10729;SDS011;5416;59.258;18.128;2024-01-27T03:54:25;2.53;;;2.42;;
10729;SDS011;5416;59.258;18.128;2024-01-27T03:56:53;2.85;;;2.75;;
10729;SDS011;5416;59.258;18.128;2024-01-27T03:59:20;3.28;;;3.17;;
10729;SDS011;5416;59.258;18.128;2024-01-27T04:01:47;2.60;;;2.50;;
10729;SDS011;5416;59.258;18.128;2024-01-27T04:04:15;2.60;;;2.50;;
10729;SDS011;5416;59.258;18.128;2024-01-27T04:06:42;2.75;;;2.65;;
10729;SDS011;5416;59.258;18.128;2024-01-27T04:09:10;3.25;;;3.15;;
10729;SDS011;5416;59.258;18.128;2024-01-27T04:11:38;2.67;;;2.58;;
10729;SDS011;5416;59.258;18.128;2024-01-27T04:14:06;2.95;;;2.85;;
10729;SDS011;5416;59.258;18.128;2024-01-27T04:16:33;2.80;;;2.70;;
10729;SDS011;5416;59.258;18.128;2024-01-27T04:19:00;3.25;;;3.15;;
10729;SDS011;5416;59.258;18.128;2024-01-27T04:21:27;2.78;;;2.67;;
10729;SDS011;5416;59.258;18.128;2024-01-27T04:23:54;2.75;;;2.65;;
10729;SDS011;5416;59.258;18.128;2024-01-27T04:26:23;2.90;;;2.80;;
10729;SDS011;5416;59.258;18.128;2024-01-27T04:28:52;3.20;;;3.10;;
10729;SDS011;5416;59.258;18.128;2024-01-27T04:31:19;2.40;;;2.30;;
10729;SDS011;5416;59.258;18.128;2024-01-27T04:33:46;2.80;;;2.70;;
10729;SDS011;5416;59.258;18.128;2024-01-27T04:36:13;3.17;;;3.08;;
10729;SDS011;5416;59.258;18.128;2024-01-27T04:38:43;3.50;;;3.40;;
10729;SDS011;5416;59.258;18.128;2024-01-27T04:41:10;2.90;;;2.80;;
10729;SDS011;5416;59.258;18.128;2024-01-27T04:43:38;2.90;;;2.80;;
10729;SDS011;5416;59.258;18.128;2024-01-27T04:46:05;2.90;;;2.80;;
10729;SDS011;5416;59.258;18.128;2024-01-27T04:48:32;3.13;;;3.03;;
10729;SDS011;5416;59.258;18.128;2024-01-27T04:51:00;2.50;;;2.40;;
10729;SDS011;5416;59.258;18.128;2024-01-27T04:53:27;2.92;;;2.83;;
10729;SDS011;5416;59.258;18.128;2024-01-27T04:55:54;2.83;;;2.72;;
10729;SDS011;5416;59.258;18.128;2024-01-27T04:58:21;3.15;;;3.05;;
10729;SDS011;5416;59.258;18.128;2024-01-27T05:00:49;2.92;;;2.83;;
10729;SDS011;5416;59.258;18.128;2024-01-27T05:03:17;2.72;;;2.63;;
10729;SDS011;5416;59.258;18.128;2024-01-27T05:05:44;3.10;;;3.00;;
10729;SDS011;5416;59.258;18.128;2024-01-27T05:08:11;2.42;;;2.33;;
10729;SDS011;5416;59.258;18.128;2024-01-27T05:10:38;2.40;;;2.30;;
10729;SDS011;5416;59.258;18.128;2024-01-27T05:13:05;3.20;;;3.10;;
10729;SDS011;5416;59.258;18.128;2024-01-27T05:15:32;2.90;;;2.80;;
10729;SDS011;5416;59.258;18.128;2024-01-27T05:18:01;2.72;;;2.63;;
10729;SDS011;5416;59.258;18.128;2024-01-27T05:20:28;2.92;;;2.83;;
10729;SDS011;5416;59.258;18.128;2024-01-27T05:22:55;3.10;;;3.00;;
10729;SDS011;5416;59.258;18.128;2024-01-27T05:25:22;2.58;;;2.47;;
10729;SDS011;5416;59.258;18.128;2024-01-27T05:27:49;2.80;;;2.70;;
10729;SDS011;5416;59.258;18.128;2024-01-27T05:30:17;3.13;;;3.03;;
10729;SDS011;5416;59.258;18.128;2024-01-27T05:32:44;3.05;;;2.95;;
10729;SDS011;5416;59.258;18.128;2024-01-27T05:35:12;2.70;;;2.60;;
10729;SDS011;5416;59.258;18.128;2024-01-27T05:37:39;3.05;;;2.95;;
10729;SDS011;5416;59.258;18.128;2024-01-27T05:40:07;2.90;;;2.80;;
10729;SDS011;5416;59.258;18.128;2024-01-27T05:42:35;2.38;;;2.28;;
10729;SDS011;5416;59.258;18.128;2024-01-27T05:45:02;2.60;;;2.50;;
10729;SDS011;5416;59.258;18.128;2024-01-27T05:47:29;2.80;;;2.70;;
10729;SDS011;5416;59.258;18.128;2024-01-27T05:49:56;3.20;;;3.10;;
10729;SDS011;5416;59.258;18.128;2024-01-27T05:52:25;2.70;;;2.60;;
10729;SDS011;5416;59.258;18.128;2024-01-27T05:54:52;3.15;;;3.05;;
10729;SDS011;5416;59.258;18.128;2024-01-27T05:57:19;3.50;;;3.40;;
10729;SDS011;5416;59.258;18.128;2024-01-27T05:59:46;2.30;;;2.20;;
10729;SDS011;5416;59.258;18.128;2024-01-27T06:02:13;3.22;;;3.13;;
10729;SDS011;5416;59.258;18.128;2024-01-27T06:04:42;3.15;;;3.05;;
10729;SDS011;5416;59.258;18.128;2024-01-27T06:07:10;2.55;;;2.45;;
10729;SDS011;5416;59.258;18.128;2024-01-27T06:09:38;2.67;;;2.58;;
10729;SDS011;5416;59.258;18.128;2024-01-27T06:12:05;2.90;;;2.80;;
10729;SDS011;5416;59.258;18.128;2024-01-27T06:14:33;3.03;;;2.92;;
10729;SDS011;5416;59.258;18.128;2024-01-27T06:17:00;2.60;;;2.50;;
10729;SDS011;5416;59.258;18.128;2024-01-27T06:19:27;2.75;;;2.65;;
10729;SDS011;5416;59.258;18.128;2024-01-27T06:21:54;3.10;;;3.00;;
10729;SDS011;5416;59.258;18.128;2024-01-27T06:24:21;2.28;;;2.17;;
10729;SDS011;5416;59.258;18.128;2024-01-27T06:26:50;2.70;;;2.60;;
10729;SDS011;5416;59.258;18.128;2024-01-27T06:29:17;2.92;;;2.83;;
10729;SDS011;5416;59.258;18.128;2024-01-27T06:31:44;2.88;;;2.78;;
10729;SDS011;5416;59.258;18.128;2024-01-27T06:34:11;2.80;;;2.70;;
10729;SDS011;5416;59.258;18.128;2024-01-27T06:36:39;3.50;;;3.40;;
10729;SDS011;5416;59.258;18.128;2024-01-27T06:39:06;3.08;;;2.97;;
10729;SDS011;5416;59.258;18.128;2024-01-27T06:41:33;2.75;;;2.65;;
10729;SDS011;5416;59.258;18.128;2024-01-27T06:44:02;2.92;;;2.83;;
10729;SDS011;5416;59.258;18.128;2024-01-27T06:46:29;3.13;;;3.03;;
10729;SDS011;5416;59.258;18.128;2024-01-27T06:48:56;2.60;;;2.50;;
10729;SDS011;5416;59.258;18.128;2024-01-27T06:51:23;2.75;;;2.65;;
10729;SDS011;5416;59.258;18.128;2024-01-27T06:53:50;2.95;;;2.85;;
10729;SDS011;5416;59.258;18.128;2024-01-27T06:56:17;2.63;;;2.53;;
10729;SDS011;5416;59.258;18.128;2024-01-27T06:58:44;3.10;;;3.00;;
10729;SDS011;5416;59.258;18.128;2024-01-27T07:01:13;3.42;;;3.33;;
10729;SDS011;5416;59.258;18.128;2024-01-27T07:03:40;2.78;;;2.67;;
10729;SDS011;5416;59.258;18.128;2024-01-27T07:06:09;3.00;;;2.90;;
10729;SDS011;5416;59.258;18.128;2024-01-27T07:08:36;3.20;;;3.10;;
10729;SDS011;5416;59.258;18.128;2024-01-27T07:11:03;2.60;;;2.50;;
10729;SDS011;5416;59.258;18.128;2024-01-27T07:13:30;2.78;;;2.67;;
10729;SDS011;5416;59.258;18.128;2024-01-27T07:15:57;3.25;;;3.15;;
10729;SDS011;5416;59.258;18.128;2024-01-27T07:18:26;2.10;;;2.10;;
10729;SDS011;5416;59.258;18.128;2024-01-27T07:20:54;2.85;;;2.75;;
10729;SDS011;5416;59.258;18.128;2024-01-27T07:23:24;3.00;;;2.90;;
10729;SDS011;5416;59.258;18.128;2024-01-27T07:25:51;2.63;;;2.53;;
10729;SDS011;5416;59.258;18.128;2024-01-27T07:28:18;2.60;;;2.50;;
10729;SDS011;5416;59.258;18.128;2024-01-27T07:30:45;3.00;;;2.90;;
10729;SDS011;5416;59.258;18.128;2024-01-27T07:33:12;2.72;;;2.63;;
10729;SDS011;5416;59.258;18.128;2024-01-27T07:35:41;2.85;;;2.75;;
10729;SDS011;5416;59.258;18.128;2024-01-27T07:38:08;2.80;;;2.70;;
10729;SDS011;5416;59.258;18.128;2024-01-27T07:40:35;2.78;;;2.67;;
10729;SDS011;5416;59.258;18.128;2024-01-27T07:43:02;2.47;;;2.38;;
10729;SDS011;5416;59.258;18.128;2024-01-27T07:45:30;3.00;;;2.90;;
10729;SDS011;5416;59.258;18.128;2024-01-27T07:47:57;2.83;;;2.72;;
10729;SDS011;5416;59.258;18.128;2024-01-27T07:50:24;2.90;;;2.80;;
10729;SDS011;5416;59.258;18.128;2024-01-27T07:52:52;2.90;;;2.80;;
10729;SDS011;5416;59.258;18.128;2024-01-27T07:55:19;3.15;;;3.05;;
10729;SDS011;5416;59.258;18.128;2024-01-27T07:57:46;2.40;;;2.30;;
10729;SDS011;5416;59.258;18.128;2024-01-27T08:00:14;3.10;;;3.00;;
10729;SDS011;5416;59.258;18.128;2024-01-27T08:02:41;2.92;;;2.83;;
10729;SDS011;5416;59.258;18.128;2024-01-27T08:05:08;2.38;;;2.28;;
10729;SDS011;5416;59.258;18.128;2024-01-27T08:07:35;2.97;;;2.88;;
10729;SDS011;5416;59.258;18.128;2024-01-27T08:10:04;2.90;;;2.80;;
10729;SDS011;5416;59.258;18.128;2024-01-27T08:12:31;2.50;;;2.40;;
10729;SDS011;5416;59.258;18.128;2024-01-27T08:14:58;2.75;;;2.65;;
10729;SDS011;5416;59.258;18.128;2024-01-27T08:17:25;3.05;;;2.95;;
10729;SDS011;5416;59.258;18.128;2024-01-27T08:19:52;2.50;;;2.40;;
10729;SDS011;5416;59.258;18.128;2024-01-27T08:22:19;2.80;;;2.70;;
10729;SDS011;5416;59.258;18.128;2024-01-27T08:24:46;3.00;;;2.90;;
10729;SDS011;5416;59.258;18.128;2024-01-27T08:27:15;2.70;;;2.60;;
10729;SDS011;5416;59.258;18.128;2024-01-27T08:29:42;2.72;;;2.63;;
10729;SDS011;5416;59.258;18.128;2024-01-27T08:32:09;3.58;;;3.47;;
10729;SDS011;5416;59.258;18.128;2024-01-27T08:34:37;3.20;;;3.10;;
10729;SDS011;5416;59.258;18.128;2024-01-27T08:37:13;3.05;;;2.95;;
10729;SDS011;5416;59.258;18.128;2024-01-27T08:39:40;3.08;;;2.97;;
10729;SDS011;5416;59.258;18.128;2024-01-27T08:42:07;3.05;;;2.95;;
10729;SDS011;5416;59.258;18.128;2024-01-27T08:44:36;3.30;;;3.20;;
10729;SDS011;5416;59.258;18.128;2024-01-27T08:47:03;3.50;;;3.40;;
10729;SDS011;5416;59.258;18.128;2024-01-27T08:49:30;3.25;;;3.15;;
10729;SDS011;5416;59.258;18.128;2024-01-27T08:51:57;3.53;;;3.42;;
10729;SDS011;5416;59.258;18.128;2024-01-27T08:54:24;3.28;;;3.17;;
10729;SDS011;5416;59.258;18.128;2024-01-27T08:56:51;3.33;;;3.22;;
10729;SDS011;5416;59.258;18.128;2024-01-27T08:59:18;3.20;;;3.10;;
10729;SDS011;5416;59.258;18.128;2024-01-27T09:01:47;3.17;;;3.08;;
10729;SDS011;5416;59.258;18.128;2024-01-27T09:04:14;3.80;;;3.70;;
10729;SDS011;5416;59.258;18.128;2024-01-27T09:06:41;3.38;;;3.28;;
10729;SDS011;5416;59.258;18.128;2024-01-27T09:09:08;3.40;;;3.30;;
10729;SDS011;5416;59.258;18.128;2024-01-27T09:11:37;3.20;;;3.10;;
10729;SDS011;5416;59.258;18.128;2024-01-27T09:14:04;3.63;;;3.53;;
10729;SDS011;5416;59.258;18.128;2024-01-27T09:16:32;3.63;;;3.53;;
10729;SDS011;5416;59.258;18.128;2024-01-27T09:19:01;3.38;;;3.28;;
10729;SDS011;5416;59.258;18.128;2024-01-27T09:21:28;3.50;;;3.40;;
10729;SDS011;5416;59.258;18.128;2024-01-27T09:23:57;3.60;;;3.50;;
10729;SDS011;5416;59.258;18.128;2024-01-27T09:26:26;3.47;;;3.38;;
10729;SDS011;5416;59.258;18.128;2024-01-27T09:28:53;3.00;;;2.90;;
10729;SDS011;5416;59.258;18.128;2024-01-27T09:31:21;3.65;;;3.55;;
10729;SDS011;5416;59.258;18.128;2024-01-27T09:33:48;3.50;;;3.40;;
10729;SDS011;5416;59.258;18.128;2024-01-27T09:36:17;3.22;;;3.13;;
10729;SDS011;5416;59.258;18.128;2024-01-27T09:38:44;3.42;;;3.33;;
10729;SDS011;5416;59.258;18.128;2024-01-27T09:41:12;3.53;;;3.42;;
10729;SDS011;5416;59.258;18.128;2024-01-27T09:43:40;3.42;;;3.33;;
10729;SDS011;5416;59.258;18.128;2024-01-27T09:46:09;3.28;;;3.17;;
10729;SDS011;5416;59.258;18.128;2024-01-27T09:48:36;3.40;;;3.30;;
10729;SDS011;5416;59.258;18.128;2024-01-27T09:51:03;3.47;;;3.38;;
10729;SDS011;5416;59.258;18.128;2024-01-27T09:53:32;3.88;;;3.78;;
10729;SDS011;5416;59.258;18.128;2024-01-27T09:56:00;3.50;;;3.40;;
10729;SDS011;5416;59.258;18.128;2024-01-27T09:58:28;3.38;;;3.28;;
10729;SDS011;5416;59.258;18.128;2024-01-27T10:00:56;3.70;;;3.60;;
10729;SDS011;5416;59.258;18.128;2024-01-27T10:03:23;4.07;;;3.97;;
10729;SDS011;5416;59.258;18.128;2024-01-27T10:05:51;3.88;;;3.78;;
10729;SDS011;5416;59.258;18.128;2024-01-27T10:08:19;3.40;;;3.30;;
10729;SDS011;5416;59.258;18.128;2024-01-27T10:10:48;3.45;;;3.35;;
10729;SDS011;5416;59.258;18.128;2024-01-27T10:13:16;3.65;;;3.55;;
10729;SDS011;5416;59.258;18.128;2024-01-27T10:15:43;3.63;;;3.53;;
10729;SDS011;5416;59.258;18.128;2024-01-27T10:18:10;3.28;;;3.17;;
10729;SDS011;5416;59.258;18.128;2024-01-27T10:20:40;3.58;;;3.47;;
10729;SDS011;5416;59.258;18.128;2024-01-27T10:23:11;3.63;;;3.53;;
10729;SDS011;5416;59.258;18.128;2024-01-27T10:25:38;3.90;;;3.80;;
10729;SDS011;5416;59.258;18.128;2024-01-27T10:28:06;4.22;;;4.13;;
10729;SDS011;5416;59.258;18.128;2024-01-27T10:30:34;3.83;;;3.72;;
10729;SDS011;5416;59.258;18.128;2024-01-27T10:33:01;3.63;;;3.53;;
10729;SDS011;5416;59.258;18.128;2024-01-27T10:35:28;3.90;;;3.80;;
10729;SDS011;5416;59.258;18.128;2024-01-27T10:37:56;3.90;;;3.80;;
10729;SDS011;5416;59.258;18.128;2024-01-27T10:40:23;3.57;;;3.47;;
10729;SDS011;5416;59.258;18.128;2024-01-27T10:42:55;3.70;;;3.60;;
10729;SDS011;5416;59.258;18.128;2024-01-27T10:45:28;3.78;;;3.67;;
10729;SDS011;5416;59.258;18.128;2024-01-27T10:47:56;3.45;;;3.35;;
10729;SDS011;5416;59.258;18.128;2024-01-27T10:50:26;3.83;;;3.72;;
10729;SDS011;5416;59.258;18.128;2024-01-27T10:52:54;3.88;;;3.78;;
10729;SDS011;5416;59.258;18.128;2024-01-27T10:55:24;3.80;;;3.70;;
10729;SDS011;5416;59.258;18.128;2024-01-27T10:57:52;3.72;;;3.63;;
10729;SDS011;5416;59.258;18.128;2024-01-27T11:00:21;3.88;;;3.78;;
10729;SDS011;5416;59.258;18.128;2024-01-27T11:02:49;3.63;;;3.53;;
10729;SDS011;5416;59.258;18.128;2024-01-27T11:05:18;3.70;;;3.60;;
10729;SDS011;5416;59.258;18.128;2024-01-27T11:07:46;3.33;;;3.22;;
10729;SDS011;5416;59.258;18.128;2024-01-27T11:10:14;3.25;;;3.15;;
10729;SDS011;5416;59.258;18.128;2024-01-27T11:12:41;3.30;;;3.20;;
10729;SDS011;5416;59.258;18.128;2024-01-27T11:15:09;3.55;;;3.45;;
10729;SDS011;5416;59.258;18.128;2024-01-27T11:17:39;3.15;;;3.05;;
10729;SDS011;5416;59.258;18.128;2024-01-27T11:20:09;3.50;;;3.40;;
10729;SDS011;5416;59.258;18.128;2024-01-27T11:22:38;3.33;;;3.22;;
10729;SDS011;5416;59.258;18.128;2024-01-27T11:25:08;3.47;;;3.38;;
10729;SDS011;5416;59.258;18.128;2024-01-27T11:27:35;4.30;;;4.20;;
10729;SDS011;5416;59.258;18.128;2024-01-27T11:30:02;4.00;;;3.90;;
10729;SDS011;5416;59.258;18.128;2024-01-27T11:32:30;3.67;;;3.58;;
10729;SDS011;5416;59.258;18.128;2024-01-27T11:35:00;4.23;;;4.13;;
10729;SDS011;5416;59.258;18.128;2024-01-27T11:37:31;3.88;;;3.78;;
10729;SDS011;5416;59.258;18.128;2024-01-27T11:40:03;3.40;;;3.30;;
10729;SDS011;5416;59.258;18.128;2024-01-27T11:42:31;3.58;;;3.47;;
10729;SDS011;5416;59.258;18.128;2024-01-27T11:44:58;3.75;;;3.65;;
10729;SDS011;5416;59.258;18.128;2024-01-27T11:47:26;3.63;;;3.53;;
10729;SDS011;5416;59.258;18.128;2024-01-27T11:49:55;3.50;;;3.40;;
10729;SDS011;5416;59.258;18.128;2024-01-27T11:52:23;3.65;;;3.55;;
10729;SDS011;5416;59.258;18.128;2024-01-27T11:54:55;3.50;;;3.40;;
10729;SDS011;5416;59.258;18.128;2024-01-27T11:57:22;3.42;;;3.33;;
10729;SDS011;5416;59.258;18.128;2024-01-27T11:59:50;4.05;;;3.95;;
10729;SDS011;5416;59.258;18.128;2024-01-27T12:02:17;3.60;;;3.50;;
10729;SDS011;5416;59.258;18.128;2024-01-27T12:04:45;4.05;;;3.95;;
10729;SDS011;5416;59.258;18.128;2024-01-27T12:07:12;3.88;;;3.78;;
10729;SDS011;5416;59.258;18.128;2024-01-27T12:09:39;3.70;;;3.60;;
10729;SDS011;5416;59.258;18.128;2024-01-27T12:12:07;3.90;;;3.80;;
10729;SDS011;5416;59.258;18.128;2024-01-27T12:14:38;3.47;;;3.38;;
10729;SDS011;5416;59.258;18.128;2024-01-27T12:17:07;3.88;;;3.78;;
10729;SDS011;5416;59.258;18.128;2024-01-27T12:19:35;3.60;;;3.50;;
10729;SDS011;5416;59.258;18.128;2024-01-27T12:22:02;4.10;;;4.00;;
10729;SDS011;5416;59.258;18.128;2024-01-27T12:24:29;3.50;;;3.40;;
10729;SDS011;5416;59.258;18.128;2024-01-27T12:26:57;3.72;;;3.63;;
10729;SDS011;5416;59.258;18.128;2024-01-27T12:29:26;3.30;;;3.20;;
10729;SDS011;5416;59.258;18.128;2024-01-27T12:31:53;4.20;;;4.10;;
10729;SDS011;5416;59.258;18.128;2024-01-27T12:34:21;3.83;;;3.73;;
10729;SDS011;5416;59.258;18.128;2024-01-27T12:36:48;4.00;;;3.90;;
10729;SDS011;5416;59.258;18.128;2024-01-27T12:39:16;3.90;;;3.80;;
10729;SDS011;5416;59.258;18.128;2024-01-27T12:41:44;3.80;;;3.70;;
10729;SDS011;5416;59.258;18.128;2024-01-27T12:44:11;3.75;;;3.65;;
10729;SDS011;5416;59.258;18.128;2024-01-27T12:46:39;3.63;;;3.53;;
10729;SDS011;5416;59.258;18.128;2024-01-27T12:49:06;3.57;;;3.47;;
10729;SDS011;5416;59.258;18.128;2024-01-27T12:51:34;3.75;;;3.65;;
10729;SDS011;5416;59.258;18.128;2024-01-27T12:54:01;3.75;;;3.65;;
10729;SDS011;5416;59.258;18.128;2024-01-27T12:56:29;3.90;;;3.80;;
10729;SDS011;5416;59.258;18.128;2024-01-27T12:58:56;3.60;;;3.50;;
10729;SDS011;5416;59.258;18.128;2024-01-27T13:01:23;3.80;;;3.70;;
10729;SDS011;5416;59.258;18.128;2024-01-27T13:03:51;3.50;;;3.40;;
10729;SDS011;5416;59.258;18.128;2024-01-27T13:06:18;3.83;;;3.73;;
10729;SDS011;5416;59.258;18.128;2024-01-27T13:08:47;3.70;;;3.60;;
10729;SDS011;5416;59.258;18.128;2024-01-27T13:11:15;3.90;;;3.80;;
10729;SDS011;5416;59.258;18.128;2024-01-27T13:13:43;3.58;;;3.47;;
10729;SDS011;5416;59.258;18.128;2024-01-27T13:16:10;4.13;;;4.03;;
10729;SDS011;5416;59.258;18.128;2024-01-27T13:18:37;4.05;;;3.95;;
10729;SDS011;5416;59.258;18.128;2024-01-27T13:21:05;3.83;;;3.72;;
10729;SDS011;5416;59.258;18.128;2024-01-27T13:23:33;3.95;;;3.85;;
10729;SDS011;5416;59.258;18.128;2024-01-27T13:26:01;3.67;;;3.58;;
10729;SDS011;5416;59.258;18.128;2024-01-27T13:28:28;3.33;;;3.22;;
10729;SDS011;5416;59.258;18.128;2024-01-27T13:30:55;4.03;;;3.92;;
10729;SDS011;5416;59.258;18.128;2024-01-27T13:33:22;3.20;;;3.10;;
10729;SDS011;5416;59.258;18.128;2024-01-27T13:35:50;3.60;;;3.50;;
10729;SDS011;5416;59.258;18.128;2024-01-27T13:38:18;3.67;;;3.58;;
10729;SDS011;5416;59.258;18.128;2024-01-27T13:40:48;3.33;;;3.22;;
10729;SDS011;5416;59.258;18.128;2024-01-27T13:43:15;3.22;;;3.13;;
10729;SDS011;5416;59.258;18.128;2024-01-27T13:45:42;3.00;;;2.90;;
10729;SDS011;5416;59.258;18.128;2024-01-27T13:48:11;3.30;;;3.20;;
10729;SDS011;5416;59.258;18.128;2024-01-27T13:50:38;3.97;;;3.88;;
10729;SDS011;5416;59.258;18.128;2024-01-27T13:53:06;4.00;;;3.90;;
10729;SDS011;5416;59.258;18.128;2024-01-27T13:55:34;3.30;;;3.20;;
10729;SDS011;5416;59.258;18.128;2024-01-27T13:58:02;3.30;;;3.20;;
10729;SDS011;5416;59.258;18.128;2024-01-27T14:00:29;3.20;;;3.10;;
10729;SDS011;5416;59.258;18.128;2024-01-27T14:02:58;3.22;;;3.13;;
10729;SDS011;5416;59.258;18.128;2024-01-27T14:05:25;3.60;;;3.50;;
10729;SDS011;5416;59.258;18.128;2024-01-27T14:07:52;3.20;;;3.10;;
10729;SDS011;5416;59.258;18.128;2024-01-27T14:10:19;3.20;;;3.10;;
10729;SDS011;5416;59.258;18.128;2024-01-27T14:12:48;3.67;;;3.58;;
10729;SDS011;5416;59.258;18.128;2024-01-27T14:15:15;3.88;;;3.78;;
10729;SDS011;5416;59.258;18.128;2024-01-27T14:17:42;3.20;;;3.10;;
10729;SDS011;5416;59.258;18.128;2024-01-27T14:20:11;3.35;;;3.25;;
10729;SDS011;5416;59.258;18.128;2024-01-27T14:22:38;3.47;;;3.38;;
10729;SDS011;5416;59.258;18.128;2024-01-27T14:25:06;4.07;;;3.97;;
10729;SDS011;5416;59.258;18.128;2024-01-27T14:27:34;3.10;;;3.00;;
10729;SDS011;5416;59.258;18.128;2024-01-27T14:30:03;3.40;;;3.30;;
10729;SDS011;5416;59.258;18.128;2024-01-27T14:32:31;3.72;;;3.63;;
10729;SDS011;5416;59.258;18.128;2024-01-27T14:34:58;3.90;;;3.80;;
10729;SDS011;5416;59.258;18.128;2024-01-27T14:37:25;2.90;;;2.80;;
10729;SDS011;5416;59.258;18.128;2024-01-27T14:39:52;3.42;;;3.33;;
10729;SDS011;5416;59.258;18.128;2024-01-27T14:42:20;3.42;;;3.33;;
10729;SDS011;5416;59.258;18.128;2024-01-27T14:44:47;3.40;;;3.30;;
10729;SDS011;5416;59.258;18.128;2024-01-27T14:47:17;3.00;;;2.90;;
10729;SDS011;5416;59.258;18.128;2024-01-27T14:49:45;3.55;;;3.45;;